Time;durP1;ratioP1;P1;durP2;ratioP2;P2;SDS_P1;SDS_P2;PMS_P1;PMS_P2;Temp;Humidity;BMP_temperature;BMP_pressure;BME280_temperature;BME280_humidity;BME280_pressure;Samples;Min_cycle;Max_cycle;Signal;HPM_P1;HPM_P2
2024/04/25 00:00:15;;;;;;;7.13;5.87;;;;;;;6.59;79.34;99123.41;5449231;26;20230;-59
2024/04/25 00:02:45;;;;;;;8.73;6.30;;;;;;;6.56;79.41;99118.31;5448729;26;20234;-60
2024/04/25 00:05:15;;;;;;;8.63;7.33;;;;;;;6.58;79.44;99115.72;5444482;26;20315;-60
2024/04/25 00:07:45;;;;;;;7.67;6.33;;;;;;;6.55;79.69;99119.16;5443035;26;20333;-58
2024/04/25 00:10:15;;;;;;;9.20;6.47;;;;;;;6.59;79.66;99128.53;5447439;26;20302;-60
2024/04/25 00:12:44;;;;;;;8.87;6.13;;;;;;;6.60;79.59;99132.78;5452241;26;20229;-58
2024/04/25 00:15:17;;;;;;;8.00;6.43;;;;;;;6.58;79.20;99126.81;5451674;26;20588;-59
2024/04/25 00:17:46;;;;;;;8.40;6.73;;;;;;;6.55;79.22;99121.72;5452917;26;20235;-61
2024/04/25 00:20:17;;;;;;;7.87;6.53;;;;;;;6.59;79.30;99125.97;5452133;26;20632;-60
2024/04/25 00:22:46;;;;;;;8.57;6.77;;;;;;;6.56;79.27;99122.59;5446961;26;20284;-57
2024/04/25 00:25:16;;;;;;;7.33;6.17;;;;;;;6.59;78.84;99128.53;5446583;26;20262;-64
2024/04/25 00:27:46;;;;;;;8.10;6.43;;;;;;;6.61;79.21;99119.09;5452126;26;20242;-58
2024/04/25 00:30:19;;;;;;;7.60;6.70;;;;;;;6.66;79.37;99124.16;5452652;26;20323;-58
2024/04/25 00:32:52;;;;;;;8.60;6.20;;;;;;;6.64;78.69;99124.19;5452507;26;20233;-58
2024/04/25 00:35:22;;;;;;;7.40;6.23;;;;;;;6.67;79.08;99124.16;5452432;26;20234;-59
2024/04/25 00:37:52;;;;;;;11.30;6.43;;;;;;;6.67;78.96;99124.16;5452070;26;20716;-60
2024/04/25 00:40:21;;;;;;;6.77;6.07;;;;;;;6.65;79.06;99115.63;5452505;26;20348;-57
2024/04/25 00:42:51;;;;;;;7.93;6.63;;;;;;;6.66;78.75;99119.88;5452418;26;20343;-57
2024/04/25 00:45:24;;;;;;;8.30;6.77;;;;;;;6.66;78.72;99114.75;5449483;26;20254;-58
2024/04/25 00:47:54;;;;;;;8.73;6.70;;;;;;;6.65;78.74;99131.00;5450203;26;20285;-59
2024/04/25 00:50:25;;;;;;;8.83;6.87;;;;;;;6.62;78.48;99136.16;5446359;26;20307;-59
2024/04/25 00:52:55;;;;;;;11.43;7.93;;;;;;;6.52;78.74;99127.72;5430316;26;20231;-59
2024/04/25 00:55:25;;;;;;;8.53;6.90;;;;;;;6.56;78.63;99143.06;5438709;26;20234;-59
2024/04/25 00:57:56;;;;;;;9.17;6.93;;;;;;;6.54;78.75;99141.34;5451872;26;20246;-58
2024/04/25 01:00:29;;;;;;;8.47;7.07;;;;;;;6.54;78.94;99140.50;5451241;26;20939;-60
2024/04/25 01:03:01;;;;;;;10.43;7.20;;;;;;;6.51;78.99;99136.25;5448509;26;20292;-60
2024/04/25 01:05:34;;;;;;;9.23;7.80;;;;;;;6.50;78.83;99141.41;5442762;26;20234;-60
2024/04/25 01:08:04;;;;;;;10.03;7.60;;;;;;;6.47;78.77;99142.25;5451929;26;20763;-60
2024/04/25 01:10:34;;;;;;;11.10;8.47;;;;;;;6.43;79.50;99135.47;5450724;26;20249;-59
2024/04/25 01:13:03;;;;;;;11.03;7.47;;;;;;;6.45;79.44;99140.59;5452057;26;20305;-59
2024/04/25 01:15:37;;;;;;;9.10;7.27;;;;;;;6.42;79.10;99140.63;5451282;26;20242;-60
2024/04/25 01:18:07;;;;;;;10.10;7.80;;;;;;;6.44;79.20;99138.88;5451678;26;20278;-60
2024/04/25 01:20:37;;;;;;;10.27;7.50;;;;;;;6.43;78.85;99137.19;5445175;26;20860;-58
2024/04/25 01:23:11;;;;;;;7.70;6.83;;;;;;;6.43;79.27;99137.19;5445308;26;20339;-60
2024/04/25 01:25:45;;;;;;;12.13;7.93;;;;;;;6.40;79.30;99139.78;5445445;26;20327;-58
2024/04/25 01:28:16;;;;;;;11.40;7.53;;;;;;;6.41;79.61;99133.81;5451099;26;20241;-59
2024/04/25 01:30:48;;;;;;;11.17;8.10;;;;;;;6.39;79.42;99133.81;5449403;26;20234;-59
2024/04/25 01:33:19;;;;;;;11.17;7.93;;;;;;;6.42;79.37;99136.34;5451431;26;20711;-59
2024/04/25 01:35:49;;;;;;;8.13;6.80;;;;;;;6.39;79.65;99136.38;5451395;26;20614;-59
2024/04/25 01:38:19;;;;;;;9.37;7.90;;;;;;;6.37;79.42;99133.00;5451659;26;20330;-59
2024/04/25 01:40:52;;;;;;;8.57;7.33;;;;;;;6.34;79.25;99133.03;5447216;26;20705;-59
2024/04/25 01:43:22;;;;;;;8.60;7.10;;;;;;;6.32;79.40;99136.44;5451032;26;20334;-58
2024/04/25 01:45:52;;;;;;;9.27;7.33;;;;;;;6.29;79.42;99138.16;5448758;26;20276;-62
2024/04/25 01:48:22;;;;;;;9.00;7.07;;;;;;;6.27;79.38;99132.22;5451580;26;20705;-60
2024/04/25 01:50:52;;;;;;;9.90;7.33;;;;;;;6.26;79.56;99138.22;5444823;26;20318;-57
2024/04/25 01:53:22;;;;;;;9.70;7.73;;;;;;;6.26;79.83;99130.53;5451680;26;20246;-60
2024/04/25 01:55:54;;;;;;;9.43;7.43;;;;;;;6.25;79.57;99133.94;5451123;26;20242;-60
2024/04/25 01:58:24;;;;;;;9.97;7.87;;;;;;;6.22;79.46;99128.88;5447504;26;20723;-60
2024/04/25 02:00:54;;;;;;;9.40;7.40;;;;;;;6.18;79.94;99132.28;5450779;26;20242;-60
2024/04/25 02:03:24;;;;;;;10.90;7.33;;;;;;;6.15;79.79;99142.56;5450318;26;20816;-58
2024/04/25 02:05:53;;;;;;;9.80;7.40;;;;;;;6.12;79.95;99131.50;5450691;26;20735;-59
2024/04/25 02:08:23;;;;;;;10.80;7.37;;;;;;;6.10;79.99;99143.44;5448982;26;20246;-60
2024/04/25 02:10:56;;;;;;;8.80;7.00;;;;;;;6.06;80.07;99137.50;5450602;26;20646;-64
2024/04/25 02:13:25;;;;;;;10.10;7.23;;;;;;;6.05;80.05;99146.91;5451291;26;20756;-61
2024/04/25 02:15:55;;;;;;;9.43;7.30;;;;;;;5.96;79.88;99130.75;5450585;26;20258;-59
2024/04/25 02:18:25;;;;;;;10.37;8.10;;;;;;;5.99;80.01;99146.09;5448483;26;20365;-62
2024/04/25 02:26:29;;;;;;;9.67;7.40;;;;;;;5.94;80.85;99142.72;5450680;26;20230;-59
2024/04/25 02:28:58;;;;;;;9.70;7.63;;;;;;;5.91;80.68;99147.84;5451134;26;20234;-59
2024/04/25 02:31:31;;;;;;;9.70;7.47;;;;;;;5.88;80.97;99142.72;5448687;26;21133;-59
2024/04/25 02:34:01;;;;;;;8.83;7.03;;;;;;;5.87;80.45;99149.56;5444306;26;20681;-63
2024/04/25 02:36:31;;;;;;;9.17;7.77;;;;;;;5.85;81.04;99147.88;5449578;26;20334;-59
2024/04/25 02:39:01;;;;;;;9.83;7.90;;;;;;;5.85;81.02;99153.81;5451237;26;20218;-59
2024/04/25 02:41:33;;;;;;;9.63;7.70;;;;;;;5.85;81.18;99156.38;5447825;26;20242;-59
2024/04/25 02:44:03;;;;;;;13.80;8.40;;;;;;;5.86;80.75;99162.38;5450672;26;20234;-59
2024/04/25 02:46:30;;;;;;;11.97;8.37;;;;;;;5.88;81.11;99163.19;5449816;26;20242;-59
2024/04/25 02:49:00;;;;;;;11.33;8.23;;;;;;;5.92;81.30;99169.97;5450755;26;20705;-59
2024/04/25 02:51:28;;;;;;;10.80;7.87;;;;;;;5.92;80.85;99165.72;5446882;26;20733;-58
2024/04/25 02:53:57;;;;;;;10.37;7.87;;;;;;;5.91;80.68;99164.00;5449910;26;20242;-58
2024/04/25 02:56:24;;;;;;;12.00;7.97;;;;;;;5.91;80.47;99166.56;5450996;26;20656;-58
2024/04/25 02:58:57;;;;;;;10.10;7.80;;;;;;;5.89;80.95;99169.97;5449341;26;20280;-57
2024/04/25 03:01:24;;;;;;;10.80;7.97;;;;;;;5.84;80.62;99166.63;5450249;26;20238;-58
2024/04/25 03:03:54;;;;;;;12.27;8.53;;;;;;;5.82;81.11;99170.06;5450361;26;20291;-59
2024/04/25 03:06:21;;;;;;;11.23;8.43;;;;;;;5.82;80.88;99170.06;5450653;26;20571;-58
2024/04/25 03:08:51;;;;;;;11.07;8.63;;;;;;;5.77;80.95;99174.31;5446750;26;20323;-57
2024/04/25 03:11:18;;;;;;;12.73;8.77;;;;;;;5.76;81.29;99176.91;5449743;26;20579;-58
2024/04/25 03:13:48;;;;;;;11.97;9.20;;;;;;;5.75;81.27;99172.66;5450123;26;20242;-58
2024/04/25 03:16:18;;;;;;;10.17;8.20;;;;;;;5.73;81.61;99174.34;5448370;26;20246;-58
2024/04/25 03:18:47;;;;;;;11.77;8.80;;;;;;;5.72;81.62;99178.63;5450030;26;20342;-59
2024/04/25 03:21:17;;;;;;;12.83;8.77;;;;;;;5.69;81.64;99181.19;5450047;26;20282;-59
2024/04/25 03:23:44;;;;;;;12.67;9.13;;;;;;;5.63;81.60;99172.72;5447744;26;20421;-57
2024/04/25 03:26:14;;;;;;;12.53;9.23;;;;;;;5.66;82.17;99178.66;5446994;26;20242;-59
2024/04/25 03:28:41;;;;;;;12.10;9.27;;;;;;;5.65;81.88;99176.97;5446732;26;20234;-59
2024/04/25 03:31:11;;;;;;;12.17;9.30;;;;;;;5.62;82.09;99179.53;5449508;26;20342;-60
2024/04/25 03:33:41;;;;;;;12.00;9.60;;;;;;;5.61;81.62;99177.00;5450021;26;20270;-60
2024/04/25 03:36:11;;;;;;;14.90;9.57;;;;;;;5.59;81.80;99182.09;5449706;26;20668;-60
2024/04/25 03:38:41;;;;;;;12.07;9.13;;;;;;;5.58;82.03;99190.63;5414631;26;20234;-59
2024/04/25 03:41:16;;;;;;;13.13;10.20;;;;;;;5.48;82.02;99178.75;5442239;26;21081;-60
2024/04/25 03:43:45;;;;;;;12.43;9.07;;;;;;;5.55;82.12;99198.31;5427984;26;20787;-58
2024/04/25 03:46:15;;;;;;;13.30;9.67;;;;;;;5.53;82.05;99198.31;5448393;26;20249;-57
2024/04/25 03:48:48;;;;;;;13.90;9.60;;;;;;;5.52;82.12;99196.63;5453261;26;20670;-59
2024/04/25 03:51:18;;;;;;;13.07;9.10;;;;;;;5.52;82.28;99198.31;5452843;26;20301;-58
2024/04/25 03:53:47;;;;;;;13.37;9.40;;;;;;;5.53;82.28;99205.16;5453083;26;20289;-58
2024/04/25 03:56:17;;;;;;;15.27;9.67;;;;;;;5.52;81.82;99208.53;5453420;26;20326;-58
2024/04/25 03:58:47;;;;;;;13.70;10.27;;;;;;;5.51;82.20;99209.41;5447754;26;20246;-59
2024/04/25 04:01:17;;;;;;;12.50;9.80;;;;;;;5.51;82.40;99211.94;5451919;26;20246;-58
2024/04/25 04:03:50;;;;;;;13.70;9.40;;;;;;;5.50;81.91;99216.22;5444733;26;20290;-59
2024/04/25 04:06:20;;;;;;;14.13;10.07;;;;;;;5.48;82.20;99217.06;5436624;26;20222;-60
2024/04/25 04:08:50;;;;;;;11.67;9.70;;;;;;;5.48;82.62;99224.72;5452598;26;20720;-59
2024/04/25 04:11:19;;;;;;;13.83;10.03;;;;;;;5.49;82.51;99226.44;5452156;26;20303;-59
2024/04/25 04:13:49;;;;;;;14.90;10.90;;;;;;;5.49;82.22;99226.44;5452363;26;20789;-59
2024/04/25 04:16:19;;;;;;;13.00;10.40;;;;;;;5.50;82.00;99233.25;5449461;26;20263;-60
2024/04/25 04:18:51;;;;;;;13.00;9.37;;;;;;;5.52;82.41;99229.84;5452496;26;20297;-59
2024/04/25 04:21:21;;;;;;;13.93;10.30;;;;;;;5.57;82.64;99237.47;5448692;26;20258;-59
2024/04/25 04:23:51;;;;;;;13.30;9.70;;;;;;;5.64;82.54;99235.75;5451022;26;20284;-61
2024/04/25 04:26:21;;;;;;;15.13;9.90;;;;;;;5.73;82.40;99239.09;5452468;26;20322;-61
2024/04/25 04:28:50;;;;;;;12.40;9.93;;;;;;;5.85;81.94;99245.84;5451721;26;20289;-59
2024/04/25 04:31:20;;;;;;;14.10;10.87;;;;;;;5.91;81.26;99233.03;5448691;26;20340;-58
2024/04/25 04:33:53;;;;;;;13.77;10.10;;;;;;;5.99;81.00;99233.88;5440629;26;20539;-57
2024/04/25 04:36:23;;;;;;;12.03;9.73;;;;;;;6.08;80.01;99239.81;5451504;26;20245;-59
2024/04/25 04:38:52;;;;;;;14.33;10.37;;;;;;;6.14;79.86;99242.31;5448544;26;20293;-60
2024/04/25 04:41:25;;;;;;;13.07;10.03;;;;;;;6.13;79.98;99230.38;5443612;26;20258;-59
2024/04/25 04:43:55;;;;;;;15.37;10.30;;;;;;;6.27;79.53;99246.50;5451993;26;21770;-59
2024/04/25 04:46:25;;;;;;;12.10;9.57;;;;;;;6.34;79.14;99247.31;5451715;26;20230;-59
2024/04/25 04:48:57;;;;;;;15.53;11.03;;;;;;;6.31;78.18;99249.88;5453471;26;20355;-58
2024/04/25 04:51:27;;;;;;;12.70;9.83;;;;;;;6.29;78.10;99252.44;5453007;26;20624;-58
2024/04/25 04:53:57;;;;;;;13.27;10.40;;;;;;;6.32;78.64;99249.00;5450901;26;20234;-58
2024/04/25 04:56:27;;;;;;;13.37;9.97;;;;;;;6.42;78.09;99251.50;5450725;26;20288;-58
2024/04/25 04:58:57;;;;;;;15.07;10.63;;;;;;;6.59;78.05;99251.38;5454101;26;20305;-60
2024/04/25 05:01:27;;;;;;;16.20;10.87;;;;;;;6.75;77.54;99255.50;5453241;26;20829;-60
2024/04/25 05:03:59;;;;;;;13.10;9.53;;;;;;;6.83;76.63;99257.97;5453317;26;20379;-58
2024/04/25 05:06:29;;;;;;;14.07;9.70;;;;;;;6.88;75.95;99253.66;5453522;26;20242;-58
2024/04/25 05:08:59;;;;;;;15.90;10.93;;;;;;;6.94;76.01;99255.31;5452072;26;20353;-59
2024/04/25 05:11:30;;;;;;;16.30;10.90;;;;;;;7.01;75.88;99254.41;5444011;26;20878;-59
2024/04/25 05:14:02;;;;;;;13.37;10.43;;;;;;;7.05;74.98;99258.63;5451037;26;20230;-58
2024/04/25 05:16:33;;;;;;;13.53;9.77;;;;;;;7.06;75.13;99264.59;5447726;26;20309;-57
2024/04/25 05:19:06;;;;;;;13.27;9.23;;;;;;;7.12;74.97;99262.81;5446671;26;20289;-60
2024/04/25 05:21:35;;;;;;;11.73;9.47;;;;;;;7.18;74.30;99264.47;5443981;26;20269;-65
2024/04/25 05:24:05;;;;;;;13.70;9.97;;;;;;;7.25;73.86;99269.53;5450843;26;20647;-58
2024/04/25 05:26:35;;;;;;;12.07;9.40;;;;;;;7.31;73.97;99278.00;5449620;26;20721;-58
2024/04/25 05:29:06;;;;;;;13.47;9.83;;;;;;;7.41;73.13;99277.88;5448074;26;20281;-61
2024/04/25 05:31:36;;;;;;;13.50;9.93;;;;;;;7.49;71.81;99286.34;5450749;26;20297;-59
2024/04/25 05:34:09;;;;;;;14.10;8.90;;;;;;;7.77;72.37;99282.59;5448376;26;20614;-57
2024/04/25 05:36:39;;;;;;;11.93;9.10;;;;;;;8.46;71.62;99279.94;5446564;26;20381;-59
2024/04/25 05:39:09;;;;;;;11.47;8.90;;;;;;;9.28;68.66;99280.28;5450861;26;20230;-61
2024/04/25 05:41:38;;;;;;;11.13;8.80;;;;;;;9.81;66.23;99280.94;5450916;26;20234;-60
2024/04/25 05:44:08;;;;;;;9.50;8.10;;;;;;;9.94;62.67;99281.53;5451473;26;20293;-60
2024/04/25 05:46:38;;;;;;;11.60;9.10;;;;;;;9.73;62.30;99280.25;5450856;26;20280;-59
2024/04/25 05:49:10;;;;;;;13.63;8.77;;;;;;;9.50;63.20;99288.44;5448133;26;20250;-59
2024/04/25 05:51:40;;;;;;;11.23;8.67;;;;;;;9.23;63.22;99287.22;5447494;26;20301;-56
2024/04/25 05:54:10;;;;;;;11.73;8.87;;;;;;;9.08;64.17;99295.22;5445168;26;20238;-67
2024/04/25 05:56:40;;;;;;;14.47;8.33;;;;;;;9.12;64.57;99292.53;5447564;26;20574;-59
2024/04/25 05:59:11;;;;;;;11.37;8.90;;;;;;;9.52;64.06;99296.13;5450446;26;20234;-60
2024/04/25 06:01:41;;;;;;;10.10;8.50;;;;;;;10.08;62.46;99302.66;5445603;26;20258;-60
2024/04/25 06:04:14;;;;;;;9.73;7.77;;;;;;;10.99;61.23;99296.28;5442886;26;20350;-59
2024/04/25 06:06:45;;;;;;;11.97;8.60;;;;;;;12.14;58.60;99293.13;5446969;26;20324;-60
2024/04/25 06:09:15;;;;;;;10.43;8.23;;;;;;;13.30;54.83;99298.91;5440681;26;20254;-60
2024/04/25 06:11:45;;;;;;;9.43;8.43;;;;;;;14.49;50.60;99293.63;5449649;26;20233;-60
2024/04/25 06:14:15;;;;;;;9.65;7.93;;;;;;;15.21;47.47;99288.97;5449821;26;20234;-60
2024/04/25 06:16:45;;;;;;;9.10;7.97;;;;;;;15.92;46.30;99291.06;5447555;26;20254;-60
2024/04/25 06:19:17;;;;;;;8.38;7.20;;;;;;;16.67;44.03;99283.16;5446558;26;20896;-59
2024/04/25 06:21:47;;;;;;;9.57;6.93;;;;;;;17.39;42.02;99279.59;5451937;26;20222;-59
2024/04/25 06:24:17;;;;;;;8.32;7.47;;;;;;;17.18;39.97;99285.88;5451714;26;20221;-58
2024/04/25 06:26:47;;;;;;;11.32;8.23;;;;;;;15.89;40.93;99296.41;5448087;26;20242;-60
2024/04/25 06:29:17;;;;;;;8.68;7.82;;;;;;;14.67;43.48;99307.66;5450920;26;20249;-60
2024/04/25 06:31:47;;;;;;;8.73;7.57;;;;;;;13.70;45.59;99300.94;5451303;26;20595;-59
2024/04/25 06:34:19;;;;;;;10.13;7.95;;;;;;;13.05;47.49;99315.22;5448737;26;20258;-60
2024/04/25 06:36:50;;;;;;;9.27;8.27;;;;;;;12.54;48.77;99312.59;5436597;26;20566;-60
2024/04/25 06:39:19;;;;;;;9.52;7.72;;;;;;;12.23;49.55;99323.03;5415353;26;20223;-59
2024/04/25 06:41:49;;;;;;;11.65;7.25;;;;;;;12.05;51.14;99314.94;5438433;26;20230;-60
2024/04/25 06:44:26;;;;;;;9.40;6.95;;;;;;;12.35;50.75;99314.06;5447368;26;20706;-58
2024/04/25 06:47:05;;;;;;;7.60;6.83;;;;;;;12.37;50.44;99333.81;5441913;26;20257;-58
2024/04/25 06:49:38;;;;;;;7.80;6.73;;;;;;;12.30;50.50;99321.97;5449175;26;20346;-58
2024/04/25 06:52:08;;;;;;;8.43;6.60;;;;;;;12.29;49.77;99343.50;5449601;26;20301;-58
2024/04/25 06:54:38;;;;;;;8.37;7.37;;;;;;;12.26;49.40;99333.25;5444706;26;20829;-58
2024/04/25 06:57:08;;;;;;;7.77;6.10;;;;;;;11.97;49.07;99334.97;5450148;26;20371;-61
2024/04/25 06:59:39;;;;;;;10.73;7.20;;;;;;;11.68;51.77;99346.06;5448594;26;21148;-60
2024/04/25 07:02:16;;;;;;;8.33;6.10;;;;;;;11.47;52.74;99344.06;5448319;26;20347;-61
2024/04/25 07:04:49;;;;;;;9.10;7.27;;;;;;;11.37;52.79;99349.44;5450063;26;20273;-60
2024/04/25 07:07:19;;;;;;;17.50;7.90;;;;;;;11.61;53.13;99344.53;5449814;26;20615;-59
2024/04/25 07:09:49;;;;;;;8.70;7.70;;;;;;;12.15;51.69;99343.03;5449223;26;20770;-58
2024/04/25 07:12:19;;;;;;;10.37;7.83;;;;;;;12.25;51.09;99344.47;5434292;26;20246;-58
2024/04/25 07:14:49;;;;;;;8.90;7.67;;;;;;;12.38;51.64;99347.56;5450048;26;20242;-58
2024/04/25 07:17:19;;;;;;;8.47;7.47;;;;;;;13.00;50.62;99344.75;5450575;26;20268;-58
2024/04/25 07:19:52;;;;;;;9.43;7.30;;;;;;;13.60;48.36;99353.94;5453885;26;20238;-62
2024/04/25 07:22:22;;;;;;;8.50;7.70;;;;;;;14.08;46.42;99354.81;5450699;26;20359;-61
2024/04/25 07:24:51;;;;;;;7.97;6.83;;;;;;;14.14;45.45;99359.75;5453231;26;20246;-59
2024/04/25 07:27:21;;;;;;;10.13;7.70;;;;;;;13.79;44.58;99356.72;5451471;26;20686;-59
2024/04/25 07:29:51;;;;;;;8.27;7.20;;;;;;;13.27;45.13;99366.28;5449899;26;20353;-60
2024/04/25 07:32:21;;;;;;;10.55;7.70;;;;;;;12.40;46.97;99366.41;5453042;26;20281;-59
2024/04/25 07:34:53;;;;;;;9.27;7.77;;;;;;;11.61;49.94;99367.75;5451134;26;20254;-59
2024/04/25 07:37:25;;;;;;;8.70;7.27;;;;;;;11.39;50.45;99375.22;5453573;26;20337;-59
2024/04/25 07:39:56;;;;;;;10.57;7.07;;;;;;;11.43;50.78;99378.56;5453638;26;20234;-59
2024/04/25 07:42:26;;;;;;;7.33;6.57;;;;;;;11.51;50.61;99372.31;5449951;26;20943;-58
2024/04/25 07:44:56;;;;;;;5.87;5.27;;;;;;;11.58;48.90;99373.84;5451430;26;20234;-60
2024/04/25 07:47:26;;;;;;;6.70;5.60;;;;;;;11.49;48.49;99381.00;5452220;26;20246;-59
2024/04/25 07:50:01;;;;;;;6.27;5.40;;;;;;;11.29;47.92;99387.50;5453705;26;20218;-58
2024/04/25 07:52:31;;;;;;;6.87;6.17;;;;;;;11.20;48.28;99379.16;5450563;26;20349;-61
2024/04/25 07:55:01;;;;;;;7.17;6.17;;;;;;;12.14;48.11;99369.78;5448908;26;20235;-59
2024/04/25 07:57:31;;;;;;;5.93;5.33;;;;;;;13.67;45.61;99370.09;5451564;26;20342;-60
2024/04/25 08:00:01;;;;;;;8.48;5.50;;;;;;;15.27;41.50;99370.91;5453257;26;20230;-59
2024/04/25 08:02:32;;;;;;;8.23;5.53;;;;;;;16.36;38.33;99358.38;5451783;26;20235;-61
2024/04/25 08:05:06;;;;;;;6.72;5.32;;;;;;;17.39;36.29;99359.47;5450481;26;20238;-59
2024/04/25 08:07:37;;;;;;;7.38;6.13;;;;;;;17.65;34.60;99358.16;5450635;26;20273;-59
2024/04/25 08:10:08;;;;;;;7.47;6.60;;;;;;;18.15;32.46;99357.25;5450035;26;20836;-59
2024/04/25 08:12:38;;;;;;;7.35;6.53;;;;;;;18.21;32.94;99354.34;5449661;26;20289;-59
2024/04/25 08:15:08;;;;;;;7.70;6.57;;;;;;;18.91;31.47;99354.00;5451792;26;20362;-57
2024/04/25 08:17:38;;;;;;;7.28;5.80;;;;;;;19.81;30.75;99356.56;5451152;26;20337;-60
2024/04/25 08:20:11;;;;;;;8.85;6.35;;;;;;;20.86;29.60;99340.41;5452644;26;20236;-59
2024/04/25 08:22:41;;;;;;;8.10;7.30;;;;;;;21.99;27.99;99340.63;5450924;26;20961;-60
2024/04/25 08:25:11;;;;;;;9.60;6.07;;;;;;;23.30;26.40;99340.75;5438129;26;20254;-58
2024/04/25 08:27:41;;;;;;;6.68;6.07;;;;;;;23.57;23.57;99347.53;5447294;26;20681;-58
2024/04/25 08:30:11;;;;;;;7.10;6.35;;;;;;;22.80;25.27;99352.38;5451794;26;20230;-60
2024/04/25 08:32:41;;;;;;;8.00;6.50;;;;;;;21.85;25.11;99338.97;5453041;26;20246;-59
2024/04/25 08:35:14;;;;;;;7.00;6.40;;;;;;;19.70;27.96;99357.22;5451490;26;20708;-58
2024/04/25 08:37:45;;;;;;;6.82;6.25;;;;;;;17.55;30.93;99351.72;5452193;26;20274;-59
2024/04/25 08:40:15;;;;;;;10.27;6.75;;;;;;;15.75;34.67;99372.34;5452784;26;20289;-57
2024/04/25 08:42:50;;;;;;;7.38;6.65;;;;;;;14.35;36.43;99379.69;5453008;26;20361;-59
2024/04/25 08:45:21;;;;;;;7.15;6.45;;;;;;;13.98;36.06;99381.03;5452370;26;20233;-58
2024/04/25 08:47:53;;;;;;;7.45;6.65;;;;;;;13.89;35.62;99372.78;5452532;26;20865;-60
2024/04/25 08:50:28;;;;;;;7.25;6.55;;;;;;;13.67;35.52;99370.94;5449438;26;20297;-58
2024/04/25 08:53:01;;;;;;;8.77;7.20;;;;;;;13.22;36.44;99375.91;5452079;26;20233;-59
2024/04/25 08:55:32;;;;;;;10.50;8.30;;;;;;;12.81;38.71;99383.25;5451966;26;20222;-58
2024/04/25 08:58:04;;;;;;;10.07;9.07;;;;;;;12.36;42.24;99390.66;5443471;26;20784;-60
2024/04/25 09:00:34;;;;;;;9.27;8.33;;;;;;;11.98;42.71;99385.69;5449016;26;20293;-61
2024/04/25 09:03:09;;;;;;;9.47;7.87;;;;;;;11.95;43.93;99383.19;5452489;26;20234;-60
2024/04/25 09:05:42;;;;;;;11.13;9.33;;;;;;;12.06;44.10;99383.75;5452236;26;20241;-59
2024/04/25 09:08:12;;;;;;;11.83;9.20;;;;;;;12.20;44.95;99385.94;5451552;26;20583;-59
2024/04/25 09:10:43;;;;;;;12.30;9.57;;;;;;;12.23;45.06;99392.78;5428576;26;20250;-60
2024/04/25 09:13:13;;;;;;;12.67;9.13;;;;;;;12.20;46.22;99390.28;5452220;26;20554;-59
2024/04/25 09:15:43;;;;;;;11.00;9.57;;;;;;;12.49;45.75;99394.59;5450840;26;20580;-59
2024/04/25 09:18:13;;;;;;;11.87;9.70;;;;;;;13.02;43.44;99387.75;5449166;26;20813;-62
2024/04/25 09:20:44;;;;;;;10.70;9.37;;;;;;;13.53;43.08;99392.13;5449794;26;20717;-59
2024/04/25 09:23:14;;;;;;;10.07;8.77;;;;;;;13.95;41.77;99386.34;5451073;26;20285;-58
2024/04/25 09:25:44;;;;;;;10.33;8.90;;;;;;;13.98;39.86;99391.41;5448238;26;20234;-60
2024/04/25 09:28:14;;;;;;;13.83;8.63;;;;;;;13.62;40.01;99392.69;5444453;26;20257;-60
2024/04/25 09:30:44;;;;;;;10.33;7.67;;;;;;;13.31;40.43;99388.56;5441804;26;20588;-60
2024/04/25 09:33:14;;;;;;;9.80;8.00;;;;;;;13.03;40.42;99392.03;5445657;26;20245;-61
2024/04/25 09:35:48;;;;;;;10.30;7.43;;;;;;;12.79;41.38;99400.56;5451383;26;20342;-59
2024/04/25 09:38:18;;;;;;;7.33;6.50;;;;;;;12.67;40.18;99403.53;5451932;26;20230;-58
2024/04/25 09:40:49;;;;;;;8.43;7.17;;;;;;;12.55;38.42;99402.97;5447331;26;20242;-60
2024/04/25 09:43:21;;;;;;;7.63;6.83;;;;;;;12.26;39.62;99395.25;5451628;26;20844;-63
2024/04/25 09:45:52;;;;;;;8.17;7.37;;;;;;;12.03;40.55;99407.06;5443970;26;20358;-60
2024/04/25 09:48:23;;;;;;;7.13;6.40;;;;;;;11.69;38.81;99412.28;5442657;26;20345;-59
2024/04/25 09:51:02;;;;;;;6.60;6.00;;;;;;;11.43;39.83;99406.94;5442344;26;20708;-60
2024/04/25 09:53:41;;;;;;;9.27;8.27;;;;;;;11.22;42.59;99410.88;5451327;26;20725;-60
2024/04/25 09:56:15;;;;;;;12.20;9.03;;;;;;;11.07;43.99;99419.84;5446147;26;20242;-59
2024/04/25 09:58:52;;;;;;;12.57;10.23;;;;;;;10.89;46.69;99421.94;5450634;26;20283;-60
2024/04/25 10:01:23;;;;;;;12.23;10.57;;;;;;;10.78;47.70;99423.09;5450977;26;20234;-60
2024/04/25 10:03:53;;;;;;;15.13;12.83;;;;;;;10.64;49.41;99426.81;5440068;26;20573;-58
2024/04/25 10:06:26;;;;;;;13.63;12.13;;;;;;;10.44;51.59;99426.41;5451147;26;20242;-59
2024/04/25 10:08:57;;;;;;;15.83;13.50;;;;;;;10.24;53.92;99434.50;5451557;26;20266;-58
2024/04/25 10:11:30;;;;;;;16.70;14.17;;;;;;;10.03;55.70;99433.19;5451045;26;20721;-59
2024/04/25 10:14:01;;;;;;;18.23;14.33;;;;;;;9.93;56.70;99441.94;5449671;26;20276;-59
2024/04/25 10:16:31;;;;;;;20.63;14.90;;;;;;;9.88;57.45;99438.63;5450604;26;20331;-59
2024/04/25 10:19:01;;;;;;;22.00;15.53;;;;;;;9.83;58.55;99435.28;5451377;26;20595;-63
2024/04/25 10:21:33;;;;;;;18.47;14.10;;;;;;;9.80;59.14;99443.06;5448756;26;20383;-58
2024/04/25 10:24:10;;;;;;;17.07;14.07;;;;;;;9.72;58.78;99447.47;5451048;26;20238;-58
2024/04/25 10:26:39;;;;;;;17.80;13.80;;;;;;;9.64;58.74;99448.47;5449302;26;20261;-58
2024/04/25 10:29:09;;;;;;;19.07;14.83;;;;;;;9.57;58.92;99448.59;5449594;26;20246;-64
2024/04/25 10:31:41;;;;;;;20.13;14.30;;;;;;;9.51;59.77;99449.56;5451051;26;21064;-60
2024/04/25 10:34:11;;;;;;;18.33;14.77;;;;;;;9.56;58.64;99452.06;5449449;26;20283;-60
2024/04/25 10:36:46;;;;;;;19.97;14.10;;;;;;;9.63;57.89;99462.22;5451366;26;20664;-61
2024/04/25 10:39:18;;;;;;;17.37;13.77;;;;;;;9.67;58.02;99445.00;5451439;26;20661;-60
2024/04/25 10:41:48;;;;;;;16.80;13.20;;;;;;;9.85;57.42;99451.53;5451098;26;20760;-60
2024/04/25 10:44:18;;;;;;;17.27;13.70;;;;;;;10.01;57.71;99455.53;5451075;26;20647;-61
2024/04/25 10:46:48;;;;;;;15.97;12.93;;;;;;;10.13;56.36;99451.88;5450975;26;20234;-59
2024/04/25 10:49:18;;;;;;;20.27;14.33;;;;;;;10.27;56.67;99451.63;5450816;26;20234;-62
2024/04/25 10:51:51;;;;;;;18.00;14.30;;;;;;;10.43;56.53;99459.91;5420505;26;20286;-60
2024/04/25 10:54:21;;;;;;;19.97;17.00;;;;;;;10.62;56.36;99464.66;5415231;26;20219;-60
2024/04/25 10:56:51;;;;;;;19.80;15.90;;;;;;;10.61;55.90;99454.38;5427294;26;20871;-61
2024/04/25 10:59:28;;;;;;;21.23;15.40;;;;;;;10.61;56.47;99459.53;5450066;26;20574;-60
2024/04/25 11:02:00;;;;;;;20.17;16.77;;;;;;;10.50;56.54;99456.34;5450443;26;20305;-61
2024/04/25 11:04:33;;;;;;;20.90;16.03;;;;;;;10.50;56.96;99464.06;5450529;26;20764;-64
2024/04/25 11:07:07;;;;;;;26.97;18.50;;;;;;;10.54;57.50;99455.38;5449992;26;20230;-61
2024/04/25 11:09:38;;;;;;;20.43;17.10;;;;;;;10.62;56.85;99459.50;5447855;26;20246;-62
2024/04/25 11:12:08;;;;;;;22.33;18.10;;;;;;;10.69;57.12;99454.22;5450573;26;20273;-60
2024/04/25 11:14:42;;;;;;;22.80;17.97;;;;;;;10.84;56.58;99453.88;5445889;26;20230;-58
2024/04/25 11:17:14;;;;;;;23.57;18.00;;;;;;;10.94;56.27;99460.53;5447959;26;20238;-57
2024/04/25 11:19:45;;;;;;;22.27;17.57;;;;;;;11.05;56.01;99457.72;5449688;26;20237;-59
2024/04/25 11:22:23;;;;;;;19.97;15.60;;;;;;;11.22;55.36;99465.03;5449081;26;20252;-59
2024/04/25 11:25:16;;;;;;;18.20;15.43;;;;;;;11.33;54.32;99451.00;5443474;26;20257;-59
2024/04/25 11:27:46;;;;;;;20.07;15.77;;;;;;;11.49;54.13;99448.06;5440993;26;20257;-60
2024/04/25 11:30:16;;;;;;;20.43;15.33;;;;;;;11.71;53.80;99443.19;5450157;26;20649;-60
2024/04/25 11:32:46;;;;;;;18.13;15.00;;;;;;;11.79;52.46;99443.84;5449765;26;20295;-60
2024/04/25 11:35:21;;;;;;;20.13;16.13;;;;;;;11.78;52.75;99449.88;5414780;26;21103;-59
2024/04/25 11:37:56;;;;;;;21.37;15.17;;;;;;;12.00;53.04;99440.75;5448345;26;20233;-60
2024/04/25 11:40:39;;;;;;;15.37;13.67;;;;;;;12.14;52.59;99434.34;5449232;26;20277;-60
2024/04/25 11:43:10;;;;;;;15.90;13.73;;;;;;;12.28;51.70;99433.06;5444142;26;20259;-61
2024/04/25 11:45:43;;;;;;;15.70;13.30;;;;;;;12.57;50.11;99433.97;5447864;26;20771;-62
2024/04/25 11:48:16;;;;;;;16.43;12.20;;;;;;;12.76;49.33;99431.66;5442965;26;20790;-60
2024/04/25 11:50:46;;;;;;;9.83;8.57;;;;;;;12.77;47.34;99436.78;5448281;26;20246;-60
2024/04/25 11:53:19;;;;;;;10.33;8.80;;;;;;;12.82;45.81;99436.66;5449043;26;20285;-58